الصفحة الرئيسية
METAR-TAF:

METAR-TAF

مطار :

مونشنغلادباخ, ألمانيا

دائرة عرض: 51-13-49N, خط طول: 006-30-16E, ارتفاع: 38 متر

مراقبة الطقس الحالي

تاريخ ووقت الإصدار 29 دقيقة قبل الساعة 02:50UTC
ريح 5 عقدة من الجنوب
درجة الحرارة 15°درجة مئوية
الرطوبة 82%
ضغط 1016 hPa
الرؤية 10 كم أو أكثر

METAR: EDLN 040250Z AUTO 19005KT 9999 // FEW120/// BKN160/// 15/12 Q1016

زمن: 05:19 (03:19 UTC)

توقعات

تاريخ ووقت الإصدار 10ساعات و 19 دقيقة قبل الساعة 17:00UTC
التوقعات صالحة من03 الساعة 18 UTC إلى 04 الساعة 03 UTC
ريح 7 عقدة من الجنوب الغربي
الرؤية 10 كم أو أكثر
الغيوم لا تقل 1500 م ولا وجود لمزنة ركامية السحاب الأسود

TAF: EDLN 031700Z 0318/0403 23007KT CAVOK

أرصاد الطقس والتوقعات من أكثر من 4000 مطار (تقارير الطقس للمطار METAR والتنبؤ بالطقس بالمطارTAF).

المحطات المتاحة هي النقط الصفراء والحمراء على الخريطة.

حرك المؤشر فوق النقطة لمعرفة اسم المحطة.

ثم انقر لمعرفة أرصاد وتوقعات الطقس.

لتغيير الخارطة: اضغط على الأزرار الخضراء مع رمز الصليب الأسود للتكبير. على الزر الأخضر مع شرطة للتصغير، أو على الأسهم الخضراء للخرائط المجاورة.


METAR-TAF: